Steeple Claydon, United Kingdom
Current Conditions -  °F | °C
As of 10:20 PM on Saturday 20 Dec 2014 (Local Time) from EGTK Reporting Station
Clear Clear  
Wind Chill: 34°   Ceiling: Unl
Heat Index: 37°   Visibility: 6mi
Dew Point: 37°   Wind: 5mph
Humidity: 100%   Direction: 200°SSW
Pressure: 30.42"   Gusts: NA
Location:  51.94°N, 0.98°W
Report Text: EGTK 202220Z 20004KT CAVOK 03/03 Q1030
Loading
Personal Weather Stations






























Interactive Weather Map New forecast layout! Learn more

10-Day Weather Forecast

Advertisements
Track Severe Weather on mobile